Terminal Aerodrome Forecast
Issued by NWS

Home | Current Version | Previous Version | Text Only | Print | Product List | Glossary Off
Versions: 1 2 3 4 5 6 7 8 9 10 11 12 13 14 15 16 17 18 19 20 21 22 23 24

588
FTUS43 KGRB 151141
TAFCWA
TAF
KCWA 151141Z 1512/1612 01004KT P6SM BKN003
      TEMPO 1512/1514 3SM BR BKN006
     FM151400 VRB03KT P6SM SCT012 SCT020
      TEMPO 1514/1516 BKN009
     FM151600 VRB03KT P6SM SCT030 SCT200
     FM160900 11005KT P6SM BKN100=

USA.gov is the U.S. government's official web portal to all federal, state and local government web resources and services.